Startpagina
METAR-TAF:

METAR-TAF

Vliegvelden :

Cluj-Napoca, Roemenië

Internationale luchthaven van Cluj-Napoca

breedte: 46-47N, lengte: 023-34E, hoogte: 410 m

Actueel weer

Dit bericht is 18 minuten geleden gemaakt, om 00:30 UTC
Weinig wind
Temperatuur 0°C
Vochtigheid 86%
Druk 1014 hPa
Zicht 10 km of meer
geen wolken onder 1500 m en geen cumulonimbus

METAR: LRCL 220030Z 00000KT CAVOK M00/M02 Q1014

Tijdstip: 02:48 (00:48 UTC)

Verwachting

Dit bericht is 1 uur en het 48 minuten geleden gemaakt, om 23:00 UTC
Verwachting geldig van 22 om 00 UTC tot 22 om 09 UTC
Wind 3 kt uit het oosten
Zicht 10 km of meer
Verspreide wolken op 5500 ft
Kans 30% :
Tijdelijke
van 22 om 00 UTC tot 22 om 04 UTC
Zicht: 5000 m
nevel

TAF: LRCL 212300Z 2200/2209 09003KT 9999 SCT055 PROB30 TEMPO 2200/2204 5000 BR

Waarnemingen en weersverwachtingen van meer dan 4000 vliegvelden (METAR en TAF).

De beschikbare stations zijn de gele en rode punten op de kaart.

Ga met uw muis naar het station om de naam te zien.

Klik dan om waarnemingen en weersverwachtingen te zien.

kaart wijzigen: klik op de groene knoppen met een zwart kruis om in te zoomen, op de groene knop met een streepje om uit te zoomen of op de groene pijlen voor aangrenzende kaarten.


METAR-TAF: